Time;durP1;ratioP1;P1;durP2;ratioP2;P2;SDS_P1;SDS_P2;PMS_P1;PMS_P2;Temp;Humidity;BMP_temperature;BMP_pressure;BME280_temperature;BME280_humidity;BME280_pressure;Samples;Min_cycle;Max_cycle;Signal;HPM_P1;HPM_P2
2021/03/13 00:01:44;;;;;;;1.23;0.82;;;4.90;99.90;;;;;;5159763;27;20233;-79
2021/03/13 00:04:10;;;;;;;0.85;0.70;;;4.90;99.90;;;;;;5159257;27;20199;-80
2021/03/13 00:06:36;;;;;;;0.70;0.70;;;4.90;99.90;;;;;;5159662;27;20706;-80
2021/03/13 00:09:03;;;;;;;2.20;0.90;;;4.90;99.90;;;;;;5159365;27;20206;-80
2021/03/13 00:11:29;;;;;;;1.80;1.17;;;4.90;99.90;;;;;;5159482;27;20222;-80
2021/03/13 00:13:56;;;;;;;0.80;0.80;;;5.10;99.90;;;;;;5159205;27;20218;-80
2021/03/13 00:16:23;;;;;;;0.60;0.60;;;5.10;99.90;;;;;;5159012;27;20216;-80
2021/03/13 00:18:49;;;;;;;1.20;1.02;;;5.20;99.90;;;;;;5159075;27;20203;-80
2021/03/13 00:21:15;;;;;;;0.70;0.70;;;5.30;99.90;;;;;;5159399;27;20227;-80
2021/03/13 00:23:41;;;;;;;2.55;0.90;;;5.40;99.90;;;;;;5158981;27;20202;-80
2021/03/13 00:26:07;;;;;;;1.20;1.20;;;5.40;99.90;;;;;;5159425;27;20198;-81
2021/03/13 00:28:34;;;;;;;1.33;1.23;;;5.30;99.90;;;;;;5158891;27;20217;-80
2021/03/13 00:31:01;;;;;;;0.77;0.77;;;5.40;99.90;;;;;;5158433;27;20234;-80
2021/03/13 00:33:28;;;;;;;2.28;1.20;;;5.50;99.90;;;;;;5158650;27;20230;-80
2021/03/13 00:35:54;;;;;;;1.95;1.08;;;5.50;99.90;;;;;;5158983;27;20305;-81
2021/03/13 00:38:23;;;;;;;3.10;1.45;;;5.50;99.90;;;;;;5159061;27;20206;-78
2021/03/13 00:40:51;;;;;;;4.68;1.58;;;5.60;99.90;;;;;;5159620;27;20226;-80
2021/03/13 00:43:17;;;;;;;1.05;0.98;;;5.60;99.90;;;;;;5159247;27;20194;-80
2021/03/13 00:45:45;;;;;;;1.33;1.17;;;5.60;99.90;;;;;;5159272;27;20218;-81
2021/03/13 00:48:12;;;;;;;1.42;1.05;;;5.70;99.90;;;;;;5158974;27;20230;-80
2021/03/13 00:50:42;;;;;;;1.30;1.02;;;5.70;99.90;;;;;;5158989;27;20675;-79
2021/03/13 00:53:08;;;;;;;3.97;0.93;;;5.60;99.90;;;;;;5158600;27;20209;-81
2021/03/13 00:55:35;;;;;;;0.60;0.60;;;5.50;99.90;;;;;;5158832;27;20251;-81
2021/03/13 00:58:01;;;;;;;1.77;0.82;;;5.40;99.90;;;;;;5158909;27;20203;-79
2021/03/13 01:00:27;;;;;;;1.88;0.70;;;5.30;99.90;;;;;;5158539;27;20202;-80
2021/03/13 01:02:54;;;;;;;2.75;0.77;;;5.30;99.90;;;;;;5158273;27;20198;-80
2021/03/13 01:05:21;;;;;;;1.67;0.60;;;5.30;99.90;;;;;;5158141;27;20230;-80
2021/03/13 01:07:48;;;;;;;0.80;0.80;;;5.30;99.90;;;;;;5158735;27;20199;-79
2021/03/13 01:10:19;;;;;;;0.82;0.80;;;5.20;99.90;;;;;;5158344;27;20206;-80
2021/03/13 01:12:46;;;;;;;1.75;0.85;;;5.20;99.90;;;;;;5157405;27;20221;-78
2021/03/13 01:15:14;;;;;;;2.00;0.82;;;5.00;99.90;;;;;;5158299;27;20222;-79
2021/03/13 01:17:41;;;;;;;0.40;0.40;;;5.00;99.90;;;;;;5157428;27;20209;-80
2021/03/13 01:20:09;;;;;;;0.55;0.55;;;5.00;99.90;;;;;;5157787;27;20691;-80
2021/03/13 01:22:37;;;;;;;0.75;0.75;;;5.10;99.90;;;;;;5158073;27;20226;-79
2021/03/13 01:25:05;;;;;;;0.95;0.60;;;5.20;99.90;;;;;;5158589;27;20198;-81
2021/03/13 01:27:31;;;;;;;0.55;0.50;;;5.20;99.90;;;;;;5158570;27;20210;-80
2021/03/13 01:29:58;;;;;;;0.60;0.60;;;5.20;99.90;;;;;;5157899;27;20221;-79
2021/03/13 01:32:24;;;;;;;0.57;0.57;;;5.20;99.90;;;;;;5158052;27;20224;-80
2021/03/13 01:34:50;;;;;;;0.85;0.70;;;5.20;99.90;;;;;;5157745;27;20222;-81
2021/03/13 01:37:20;;;;;;;2.75;0.90;;;5.20;99.90;;;;;;5157938;27;20624;-80
2021/03/13 01:39:47;;;;;;;0.93;0.60;;;5.20;99.90;;;;;;5158351;27;20209;-81
2021/03/13 01:42:14;;;;;;;1.50;0.90;;;5.20;99.90;;;;;;5157403;27;20229;-79
2021/03/13 01:44:40;;;;;;;1.23;0.85;;;5.20;99.90;;;;;;5158424;27;20670;-80
2021/03/13 01:47:19;;;;;;;0.98;0.70;;;5.10;99.90;;;;;;5158029;27;20212;-81
2021/03/13 01:49:47;;;;;;;1.88;1.00;;;5.10;99.90;;;;;;5158593;27;20258;-79
2021/03/13 01:52:13;;;;;;;0.80;0.80;;;5.10;99.90;;;;;;5158110;27;20226;-80
2021/03/13 01:54:40;;;;;;;1.25;0.80;;;5.10;99.90;;;;;;5158329;27;20218;-80
2021/03/13 01:57:08;;;;;;;2.10;0.82;;;5.10;99.90;;;;;;5157888;27;20209;-79
2021/03/13 01:59:34;;;;;;;0.95;0.95;;;5.10;99.90;;;;;;5157370;27;20210;-80
2021/03/13 02:02:04;;;;;;;0.88;0.88;;;5.10;99.90;;;;;;5157472;27;20233;-80
2021/03/13 02:04:30;;;;;;;1.17;0.98;;;5.10;99.90;;;;;;5158015;27;20206;-80
2021/03/13 02:07:02;;;;;;;3.55;2.50;;;5.10;99.90;;;;;;5157216;27;20218;-79
2021/03/13 02:09:32;;;;;;;1.45;1.33;;;5.10;99.90;;;;;;5157561;27;20209;-80
2021/03/13 02:12:13;;;;;;;2.45;1.50;;;5.00;99.90;;;;;;5157634;27;20230;-79
2021/03/13 02:14:49;;;;;;;1.60;1.50;;;5.00;99.90;;;;;;5157784;27;20233;-80
2021/03/13 02:17:21;;;;;;;2.90;1.42;;;5.10;99.90;;;;;;5157522;27;20206;-80
2021/03/13 02:20:23;;;;;;;2.45;1.50;;;5.10;99.90;;;;;;5157878;27;20206;-80
2021/03/13 02:22:52;;;;;;;1.20;1.13;;;5.00;99.90;;;;;;5157651;27;20226;-80
2021/03/13 02:25:31;;;;;;;4.20;4.00;;;5.00;99.90;;;;;;5157705;27;20206;-80
2021/03/13 02:28:04;;;;;;;2.35;1.55;;;5.00;99.90;;;;;;5158150;27;20202;-80
2021/03/13 02:30:33;;;;;;;2.25;1.70;;;5.00;99.90;;;;;;5160215;27;20705;-80
2021/03/13 02:33:04;;;;;;;3.35;1.48;;;5.00;99.90;;;;;;5164227;27;20210;-78
2021/03/13 02:35:33;;;;;;;1.45;1.33;;;4.90;99.90;;;;;;5163882;27;20202;-80
2021/03/13 02:38:03;;;;;;;3.78;1.50;;;5.00;99.90;;;;;;5164464;27;20206;-80
2021/03/13 02:40:31;;;;;;;1.08;1.08;;;5.00;99.90;;;;;;5161250;27;20259;-79
2021/03/13 02:43:00;;;;;;;2.35;1.40;;;5.00;99.90;;;;;;5161415;27;20225;-79
2021/03/13 02:45:29;;;;;;;1.55;1.45;;;5.10;99.90;;;;;;5160956;27;20198;-81
2021/03/13 02:47:57;;;;;;;2.00;1.40;;;5.00;99.90;;;;;;5161173;27;20706;-80
2021/03/13 02:50:25;;;;;;;2.35;2.05;;;5.00;99.90;;;;;;5161512;27;20218;-81
2021/03/13 02:52:53;;;;;;;4.28;1.60;;;5.00;99.90;;;;;;5161258;27;20577;-80
2021/03/13 02:55:22;;;;;;;2.15;1.30;;;5.10;99.90;;;;;;5161277;27;20222;-78
2021/03/13 02:57:52;;;;;;;2.22;1.42;;;5.10;99.90;;;;;;5161253;27;20198;-80
2021/03/13 03:00:20;;;;;;;1.77;1.67;;;5.10;99.90;;;;;;5161097;27;20206;-80
2021/03/13 03:02:53;;;;;;;3.67;2.00;;;5.10;99.90;;;;;;5160697;27;20226;-81
2021/03/13 03:05:21;;;;;;;4.70;1.30;;;5.10;99.90;;;;;;5161601;27;20223;-79
2021/03/13 03:07:50;;;;;;;2.10;1.85;;;5.20;99.90;;;;;;5161214;27;20229;-81
2021/03/13 03:10:17;;;;;;;1.27;1.13;;;5.20;99.90;;;;;;5161160;27;20222;-81
2021/03/13 03:12:46;;;;;;;1.83;1.35;;;5.20;99.90;;;;;;5161138;27;20234;-80
2021/03/13 03:15:14;;;;;;;3.33;1.27;;;5.30;99.90;;;;;;5161357;27;20597;-82
2021/03/13 03:17:42;;;;;;;1.42;1.30;;;5.20;99.90;;;;;;5161200;27;20224;-80
2021/03/13 03:20:11;;;;;;;1.38;1.05;;;5.30;99.90;;;;;;5162357;27;20207;-80
2021/03/13 03:22:39;;;;;;;5.05;1.35;;;5.30;99.90;;;;;;5161269;27;20241;-80
2021/03/13 03:25:07;;;;;;;2.17;1.15;;;5.30;99.90;;;;;;5162014;27;20202;-81
2021/03/13 03:27:34;;;;;;;1.52;1.40;;;5.30;99.90;;;;;;5162069;27;20207;-81
2021/03/13 03:30:02;;;;;;;3.47;1.70;;;5.40;99.90;;;;;;5161793;27;20210;-80
2021/03/13 03:32:28;;;;;;;2.30;2.10;;;5.40;99.90;;;;;;5160980;27;20222;-82
2021/03/13 03:34:55;;;;;;;3.80;3.10;;;5.50;99.90;;;;;;5162716;27;20222;-82
2021/03/13 03:37:21;;;;;;;1.70;1.33;;;5.50;99.90;;;;;;5161995;27;20206;-82
2021/03/13 03:39:48;;;;;;;2.10;1.17;;;5.50;99.90;;;;;;5162617;27;20568;-82
2021/03/13 03:42:16;;;;;;;2.53;1.40;;;5.50;99.90;;;;;;5161152;27;20228;-81
2021/03/13 03:44:47;;;;;;;3.28;1.88;;;5.60;99.90;;;;;;5161464;27;20209;-81
2021/03/13 03:47:14;;;;;;;2.03;1.33;;;5.70;99.90;;;;;;5161270;27;20198;-81
2021/03/13 03:49:42;;;;;;;1.98;0.98;;;5.70;99.90;;;;;;5160451;27;20236;-80
2021/03/13 03:52:12;;;;;;;2.33;1.13;;;5.80;99.90;;;;;;5159328;27;20741;-79
2021/03/13 03:54:40;;;;;;;4.00;1.17;;;5.80;99.90;;;;;;5159400;27;20715;-80
2021/03/13 03:57:09;;;;;;;1.27;1.17;;;5.90;99.90;;;;;;5159997;27;20206;-80
2021/03/13 03:59:37;;;;;;;1.58;1.08;;;5.90;99.90;;;;;;5159333;27;20206;-81
2021/03/13 04:02:04;;;;;;;1.20;1.10;;;5.90;99.90;;;;;;5159097;27;20229;-81
2021/03/13 04:04:31;;;;;;;3.90;1.48;;;5.90;99.90;;;;;;5159178;27;20214;-79
2021/03/13 04:06:59;;;;;;;1.60;0.80;;;6.00;99.90;;;;;;5159353;27;20206;-80
2021/03/13 04:09:27;;;;;;;2.33;1.60;;;6.00;99.90;;;;;;5159060;27;20202;-79
2021/03/13 04:11:56;;;;;;;3.22;2.10;;;6.10;99.90;;;;;;5158778;27;20222;-80
2021/03/13 04:14:23;;;;;;;2.05;1.00;;;6.20;99.90;;;;;;5159132;27;20230;-81
2021/03/13 04:16:51;;;;;;;4.10;1.55;;;6.20;99.90;;;;;;5158749;27;20206;-80
2021/03/13 04:19:18;;;;;;;0.90;0.90;;;6.30;99.90;;;;;;5158815;27;20207;-79
2021/03/13 04:21:46;;;;;;;0.98;0.98;;;6.30;99.90;;;;;;5158700;27;20228;-80
2021/03/13 04:24:13;;;;;;;0.75;0.75;;;6.40;99.90;;;;;;5158873;27;20199;-80
2021/03/13 04:26:40;;;;;;;4.45;0.85;;;6.40;99.90;;;;;;5159287;27;20199;-81
2021/03/13 04:29:07;;;;;;;1.48;0.93;;;6.40;99.90;;;;;;5158750;27;20202;-81
2021/03/13 04:31:36;;;;;;;3.97;1.88;;;6.40;99.90;;;;;;5158218;27;20226;-80
2021/03/13 04:34:03;;;;;;;1.27;0.90;;;6.40;99.90;;;;;;5158390;27;20240;-81
2021/03/13 04:36:32;;;;;;;0.88;0.88;;;6.40;99.90;;;;;;5159048;27;20329;-80
2021/03/13 04:39:00;;;;;;;2.33;1.15;;;6.50;99.90;;;;;;5158595;27;20698;-81
2021/03/13 04:41:27;;;;;;;0.95;0.65;;;6.50;99.90;;;;;;5158516;27;20676;-81
2021/03/13 04:43:55;;;;;;;2.63;0.95;;;6.40;99.90;;;;;;5158325;27;20209;-80
2021/03/13 04:46:21;;;;;;;1.05;0.82;;;6.40;99.90;;;;;;5158628;27;20198;-80
2021/03/13 04:48:49;;;;;;;0.63;0.63;;;6.50;99.90;;;;;;5158341;27;20220;-80
2021/03/13 04:51:17;;;;;;;1.40;1.30;;;6.50;99.90;;;;;;5158380;27;20222;-80
2021/03/13 04:53:44;;;;;;;1.98;0.90;;;6.50;99.90;;;;;;5156822;27;20260;-80
2021/03/13 04:56:11;;;;;;;1.05;0.85;;;6.50;99.90;;;;;;5158432;27;20213;-81
2021/03/13 04:58:38;;;;;;;1.10;1.00;;;6.50;99.90;;;;;;5158506;27;20202;-81
2021/03/13 05:01:04;;;;;;;1.25;0.90;;;6.50;99.90;;;;;;5157767;27;20245;-81
2021/03/13 05:03:30;;;;;;;1.20;0.80;;;6.50;99.90;;;;;;5157435;27;20231;-80
2021/03/13 05:05:58;;;;;;;0.68;0.68;;;6.50;99.90;;;;;;5157845;27;20735;-81
2021/03/13 05:08:24;;;;;;;1.85;1.75;;;6.50;99.90;;;;;;5157877;27;20202;-80
2021/03/13 05:10:50;;;;;;;1.40;0.80;;;6.50;99.90;;;;;;5157210;27;20707;-81
2021/03/13 05:13:16;;;;;;;1.05;0.63;;;6.50;99.90;;;;;;5157381;27;20203;-81
2021/03/13 05:15:42;;;;;;;2.47;1.23;;;6.50;99.90;;;;;;5157882;27;20217;-80
2021/03/13 05:18:09;;;;;;;0.85;0.80;;;6.50;99.90;;;;;;5157298;27;20576;-81
2021/03/13 05:20:35;;;;;;;3.25;1.10;;;6.50;99.90;;;;;;5157552;27;20205;-81
2021/03/13 05:23:02;;;;;;;3.45;0.70;;;6.50;99.90;;;;;;5157414;27;20220;-80
2021/03/13 05:25:29;;;;;;;1.20;1.10;;;6.60;99.90;;;;;;5162040;27;20194;-81
2021/03/13 05:27:55;;;;;;;0.77;0.70;;;6.70;99.90;;;;;;5160543;27;20723;-80
2021/03/13 05:30:22;;;;;;;0.73;0.70;;;6.60;99.90;;;;;;5160701;27;20214;-81
2021/03/13 05:32:48;;;;;;;1.00;0.60;;;6.70;99.90;;;;;;5157630;27;20699;-79
2021/03/13 05:35:14;;;;;;;0.85;0.50;;;6.60;99.90;;;;;;5157101;27;20741;-80
2021/03/13 05:37:41;;;;;;;1.23;0.65;;;6.70;99.90;;;;;;5157727;27;20227;-81
2021/03/13 05:40:10;;;;;;;1.02;0.70;;;6.70;99.90;;;;;;5157140;27;20202;-80
2021/03/13 05:42:37;;;;;;;0.82;0.60;;;6.70;99.90;;;;;;5156948;27;20222;-80
2021/03/13 05:45:05;;;;;;;1.63;1.52;;;6.80;99.90;;;;;;5157099;27;20235;-81
2021/03/13 05:47:32;;;;;;;6.20;1.15;;;6.70;99.90;;;;;;5157171;27;20198;-80
2021/03/13 05:50:03;;;;;;;1.75;1.40;;;6.70;99.90;;;;;;5157317;27;20247;-81
2021/03/13 05:52:32;;;;;;;2.05;1.10;;;6.80;99.90;;;;;;5157614;27;20225;-81
2021/03/13 05:54:59;;;;;;;1.80;1.05;;;6.80;99.90;;;;;;5157608;27;20634;-80
2021/03/13 05:57:26;;;;;;;2.20;0.60;;;6.90;99.90;;;;;;5157696;27;20202;-80
2021/03/13 05:59:52;;;;;;;0.95;0.93;;;6.80;99.90;;;;;;5158526;27;20214;-81
2021/03/13 06:02:20;;;;;;;3.22;0.70;;;6.90;99.90;;;;;;5159150;27;20218;-80
2021/03/13 06:04:47;;;;;;;0.98;0.98;;;6.90;99.90;;;;;;5163090;27;20235;-80
2021/03/13 06:07:16;;;;;;;1.13;1.13;;;6.90;99.90;;;;;;5164092;27;20214;-80
2021/03/13 06:09:43;;;;;;;0.75;0.55;;;7.00;99.90;;;;;;5163533;27;20205;-80
2021/03/13 06:12:10;;;;;;;0.77;0.70;;;7.00;99.90;;;;;;5162737;27;20226;-78
2021/03/13 06:14:37;;;;;;;0.63;0.60;;;7.10;99.90;;;;;;5163169;27;20632;-80
2021/03/13 06:17:03;;;;;;;2.08;1.30;;;7.10;99.90;;;;;;5163725;27;20258;-80
2021/03/13 06:19:51;;;;;;;1.40;0.70;;;7.10;99.90;;;;;;5163027;27;20209;-80
2021/03/13 06:22:42;;;;;;;5.38;3.70;;;7.10;99.90;;;;;;5162202;27;20248;-79
2021/03/13 06:25:22;;;;;;;6.28;1.60;;;7.20;99.90;;;;;;5163025;27;20202;-80
2021/03/13 06:27:51;;;;;;;2.15;0.88;;;7.30;99.90;;;;;;5163002;27;20613;-80
2021/03/13 06:30:19;;;;;;;4.40;0.98;;;7.30;99.90;;;;;;5162089;27;20224;-79
2021/03/13 06:32:45;;;;;;;0.95;0.95;;;7.40;99.90;;;;;;5162520;27;20222;-79
2021/03/13 06:35:19;;;;;;;1.58;0.80;;;7.40;99.90;;;;;;5162390;27;20214;-80
2021/03/13 06:37:46;;;;;;;0.73;0.70;;;7.50;99.90;;;;;;5162420;27;20206;-78
2021/03/13 06:40:26;;;;;;;1.30;0.80;;;7.50;99.90;;;;;;5161959;27;20258;-80
2021/03/13 06:42:52;;;;;;;1.67;0.63;;;7.50;99.90;;;;;;5161760;27;20214;-80
2021/03/13 06:45:19;;;;;;;2.22;0.95;;;7.50;99.90;;;;;;5162506;27;20271;-80
2021/03/13 06:47:46;;;;;;;4.70;0.85;;;7.60;99.90;;;;;;5161509;27;20202;-79
2021/03/13 06:50:15;;;;;;;1.00;0.63;;;7.60;99.90;;;;;;5161880;27;20210;-81
2021/03/13 06:52:42;;;;;;;1.40;1.25;;;7.70;99.90;;;;;;5160842;27;20699;-80
2021/03/13 06:55:16;;;;;;;1.58;0.70;;;7.80;99.90;;;;;;5160933;27;20222;-80
2021/03/13 06:57:43;;;;;;;1.48;1.38;;;7.80;99.90;;;;;;5160653;27;20215;-80
2021/03/13 07:00:24;;;;;;;0.95;0.70;;;7.90;99.90;;;;;;5160935;27;20225;-80
2021/03/13 07:02:51;;;;;;;2.85;1.00;;;8.00;99.90;;;;;;5160867;27;20221;-80
2021/03/13 07:05:27;;;;;;;1.30;0.85;;;8.10;99.90;;;;;;5160724;27;20706;-79
2021/03/13 07:07:54;;;;;;;1.50;1.35;;;8.10;99.90;;;;;;5161703;27;20201;-80
2021/03/13 07:10:25;;;;;;;1.10;0.80;;;8.10;99.90;;;;;;5160645;27;20207;-79
2021/03/13 07:12:52;;;;;;;1.60;0.73;;;8.10;99.90;;;;;;5161770;27;20194;-80
2021/03/13 07:15:20;;;;;;;2.65;1.35;;;8.20;99.90;;;;;;5160620;27;20263;-78
2021/03/13 07:17:49;;;;;;;1.70;0.80;;;8.30;99.90;;;;;;5160293;27;20675;-80
2021/03/13 07:20:18;;;;;;;3.00;1.15;;;8.20;99.90;;;;;;5160273;27;20202;-81
2021/03/13 07:22:48;;;;;;;1.80;1.02;;;8.20;99.90;;;;;;5160180;27;20222;-81
2021/03/13 07:25:18;;;;;;;1.83;1.40;;;8.30;99.90;;;;;;5159837;27;20205;-80
2021/03/13 07:27:46;;;;;;;1.08;0.90;;;8.40;99.90;;;;;;5161289;27;20206;-80
2021/03/13 07:30:16;;;;;;;0.73;0.70;;;8.40;99.90;;;;;;5161303;27;20254;-80
2021/03/13 07:32:46;;;;;;;0.45;0.45;;;8.40;99.90;;;;;;5161409;27;20262;-79
2021/03/13 07:35:17;;;;;;;1.13;0.55;;;8.50;99.90;;;;;;5160984;27;20219;-79
2021/03/13 07:37:50;;;;;;;1.48;0.80;;;8.50;99.90;;;;;;5160630;27;20187;-80
2021/03/13 07:40:18;;;;;;;0.77;0.77;;;8.60;99.90;;;;;;5160985;27;20582;-80
2021/03/13 07:42:45;;;;;;;1.50;0.60;;;8.70;99.90;;;;;;5160174;27;20787;-80
2021/03/13 07:45:13;;;;;;;0.80;0.80;;;8.70;99.90;;;;;;5160586;27;20205;-80
2021/03/13 07:47:40;;;;;;;1.20;0.60;;;8.70;99.70;;;;;;5160801;27;20206;-78
2021/03/13 07:50:08;;;;;;;1.02;0.75;;;8.80;99.90;;;;;;5159542;27;20258;-80
2021/03/13 07:52:37;;;;;;;0.50;0.45;;;8.80;99.50;;;;;;5160020;27;20292;-79
2021/03/13 07:55:08;;;;;;;1.45;0.80;;;8.80;99.30;;;;;;5160525;27;20222;-80
2021/03/13 07:57:36;;;;;;;1.45;0.47;;;8.80;99.00;;;;;;5160718;27;20209;-80
2021/03/13 08:00:03;;;;;;;1.13;0.98;;;8.90;98.80;;;;;;5160334;27;20214;-80
2021/03/13 08:02:37;;;;;;;1.00;0.75;;;9.00;99.00;;;;;;5159925;27;20224;-80
2021/03/13 08:05:06;;;;;;;1.25;0.98;;;9.00;98.50;;;;;;5160010;27;20229;-80
2021/03/13 08:07:52;;;;;;;0.50;0.30;;;9.10;98.60;;;;;;5160077;27;20207;-79
2021/03/13 08:10:49;;;;;;;1.55;0.50;;;9.10;98.00;;;;;;5160236;27;20671;-80
2021/03/13 08:13:55;;;;;;;0.60;0.40;;;9.10;98.00;;;;;;5159977;27;20222;-79
2021/03/13 08:16:39;;;;;;;2.13;0.40;;;9.10;98.10;;;;;;5161267;27;20221;-80
2021/03/13 08:19:27;;;;;;;1.15;1.05;;;9.10;97.80;;;;;;5161381;27;20191;-78
2021/03/13 08:22:26;;;;;;;2.15;0.80;;;9.00;97.40;;;;;;5160580;27;20219;-80
2021/03/13 08:24:54;;;;;;;0.65;0.50;;;9.00;97.10;;;;;;5160023;27;20648;-80
2021/03/13 08:27:39;;;;;;;1.02;0.60;;;9.00;97.30;;;;;;5160097;27;20230;-80
2021/03/13 08:30:29;;;;;;;1.35;0.50;;;8.90;96.90;;;;;;5160030;27;20249;-81
2021/03/13 08:33:00;;;;;;;2.25;0.70;;;8.90;96.20;;;;;;5144324;27;20281;-79
2021/03/13 08:35:34;;;;;;;1.65;1.55;;;8.90;96.30;;;;;;5160328;27;20288;-80
2021/03/13 08:38:02;;;;;;;0.85;0.77;;;9.00;96.00;;;;;;5160204;27;20208;-80
2021/03/13 08:40:30;;;;;;;0.75;0.60;;;9.00;96.20;;;;;;5160359;27;20213;-80
2021/03/13 08:42:56;;;;;;;2.97;1.00;;;9.00;95.60;;;;;;5159815;27;20250;-80
2021/03/13 08:45:24;;;;;;;1.35;0.60;;;9.10;95.50;;;;;;5160106;27;20707;-80
2021/03/13 08:47:52;;;;;;;1.35;0.80;;;9.30;95.30;;;;;;5160659;27;20207;-80
2021/03/13 08:50:54;;;;;;;1.35;1.13;;;9.50;95.10;;;;;;5160468;27;20214;-80
2021/03/13 08:53:38;;;;;;;0.75;0.75;;;9.60;94.30;;;;;;5159781;27;20203;-78
2021/03/13 08:56:52;;;;;;;2.55;0.80;;;9.70;94.40;;;;;;5159672;27;20200;-79
2021/03/13 08:59:19;;;;;;;1.27;0.52;;;9.80;93.60;;;;;;5159658;27;20208;-79
2021/03/13 09:02:02;;;;;;;0.47;0.47;;;9.80;93.70;;;;;;5159513;27;20253;-80
2021/03/13 09:04:29;;;;;;;1.27;0.50;;;9.90;93.00;;;;;;5159389;27;20195;-80
2021/03/13 09:06:55;;;;;;;0.50;0.45;;;9.90;92.90;;;;;;5158598;27;20210;-80
2021/03/13 09:09:24;;;;;;;0.88;0.50;;;10.00;91.70;;;;;;5159098;27;20211;-80
2021/03/13 09:11:56;;;;;;;1.20;0.60;;;10.10;91.90;;;;;;5158251;27;20246;-80
2021/03/13 09:14:25;;;;;;;0.60;0.50;;;10.20;91.90;;;;;;5159288;27;20225;-81
2021/03/13 09:16:51;;;;;;;0.95;0.50;;;10.20;91.40;;;;;;5159164;27;20206;-79
2021/03/13 09:19:18;;;;;;;1.35;0.50;;;10.40;91.50;;;;;;5159485;27;20206;-80
2021/03/13 09:21:50;;;;;;;0.45;0.40;;;10.40;91.20;;;;;;5158863;27;20581;-80
2021/03/13 09:24:19;;;;;;;1.23;0.50;;;10.50;90.90;;;;;;5160657;27;20214;-81
2021/03/13 09:26:54;;;;;;;4.40;0.93;;;10.50;90.90;;;;;;5158736;27;20475;-82
2021/03/13 09:29:32;;;;;;;0.80;0.80;;;10.50;90.40;;;;;;5159099;27;20801;-83
2021/03/13 09:32:00;;;;;;;0.80;0.55;;;10.50;90.50;;;;;;5158555;27;20228;-82
2021/03/13 09:34:27;;;;;;;0.60;0.60;;;10.60;90.70;;;;;;5158563;27;20233;-82
2021/03/13 09:36:54;;;;;;;1.60;0.73;;;10.50;90.20;;;;;;5160088;27;20212;-82
2021/03/13 09:39:22;;;;;;;0.93;0.75;;;10.50;90.30;;;;;;5159656;27;20210;-82
2021/03/13 09:42:07;;;;;;;1.10;0.93;;;10.50;90.30;;;;;;5160425;27;20233;-82
2021/03/13 09:44:35;;;;;;;1.53;0.60;;;10.60;90.40;;;;;;5162124;27;20453;-81
2021/03/13 09:47:24;;;;;;;0.73;0.73;;;10.70;90.30;;;;;;5162452;27;20451;-82
2021/03/13 09:49:52;;;;;;;0.90;0.83;;;10.70;90.40;;;;;;5160781;27;20461;-82
2021/03/13 09:52:31;;;;;;;10.73;1.13;;;10.80;90.10;;;;;;5159376;27;20455;-81
2021/03/13 09:55:02;;;;;;;0.80;0.80;;;10.90;90.00;;;;;;5159416;27;20480;-81
2021/03/13 09:57:28;;;;;;;3.60;0.97;;;10.90;89.60;;;;;;5154743;27;20442;-81
2021/03/13 09:59:56;;;;;;;0.73;0.73;;;10.80;89.90;;;;;;5159557;27;20452;-82
2021/03/13 10:02:23;;;;;;;1.05;0.80;;;10.80;89.70;;;;;;5158397;27;20472;-81
2021/03/13 10:04:50;;;;;;;0.50;0.50;;;10.80;90.10;;;;;;5158240;27;20201;-80
2021/03/13 10:07:17;;;;;;;0.50;0.50;;;10.80;90.20;;;;;;5157859;27;20449;-81
2021/03/13 10:09:53;;;;;;;1.33;1.23;;;10.80;90.30;;;;;;5159102;27;20530;-81
2021/03/13 10:12:28;;;;;;;1.33;0.85;;;10.90;90.40;;;;;;5160599;27;20491;-82
2021/03/13 10:14:55;;;;;;;0.40;0.40;;;10.80;90.20;;;;;;5159519;27;20617;-83
2021/03/13 10:17:21;;;;;;;0.93;0.73;;;10.80;90.40;;;;;;5160076;27;20448;-82
2021/03/13 10:19:49;;;;;;;2.03;0.90;;;10.70;90.60;;;;;;5160146;27;20443;-83
2021/03/13 10:22:20;;;;;;;1.33;0.80;;;10.70;90.70;;;;;;5158729;27;20535;-82
2021/03/13 10:24:49;;;;;;;1.63;0.80;;;10.70;90.70;;;;;;5158780;27;20441;-84
2021/03/13 10:27:20;;;;;;;1.03;0.70;;;10.80;90.90;;;;;;5158251;27;20898;-82
2021/03/13 10:29:54;;;;;;;1.23;0.60;;;10.70;90.10;;;;;;5157766;27;20460;-83
2021/03/13 10:32:27;;;;;;;0.70;0.65;;;10.60;90.40;;;;;;5158371;27;20470;-83
2021/03/13 10:35:08;;;;;;;0.40;0.40;;;10.60;90.40;;;;;;5156616;27;20562;-83
2021/03/13 10:37:35;;;;;;;2.87;0.50;;;10.50;90.50;;;;;;5157109;27;20448;-81
2021/03/13 10:40:02;;;;;;;0.70;0.70;;;10.50;90.70;;;;;;5158727;27;20441;-84
2021/03/13 10:42:33;;;;;;;0.60;0.57;;;10.50;91.00;;;;;;5158054;27;20458;-83
2021/03/13 10:45:14;;;;;;;1.43;0.40;;;10.60;90.90;;;;;;5158447;27;20456;-84
2021/03/13 10:47:42;;;;;;;1.13;0.60;;;10.50;90.60;;;;;;5156114;27;20895;-82
2021/03/13 10:50:09;;;;;;;0.63;0.63;;;10.50;90.60;;;;;;5155020;27;20451;-83
2021/03/13 10:52:36;;;;;;;0.40;0.40;;;10.50;90.90;;;;;;5162689;27;20227;-86
2021/03/13 10:55:08;;;;;;;1.02;1.02;;;10.40;90.60;;;;;;5166051;27;20529;-85
2021/03/13 10:57:36;;;;;;;0.40;0.40;;;10.50;90.70;;;;;;5169041;27;20214;-86
2021/03/13 11:00:07;;;;;;;0.70;0.60;;;10.50;90.40;;;;;;5164893;27;20291;-86
2021/03/13 11:02:33;;;;;;;0.30;0.30;;;10.50;90.40;;;;;;5164301;27;20463;-87
2021/03/13 11:05:01;;;;;;;3.13;0.57;;;10.50;90.70;;;;;;5164374;27;20454;-84
2021/03/13 11:07:32;;;;;;;0.87;0.60;;;10.60;90.30;;;;;;5163783;27;20462;-86
2021/03/13 11:09:58;;;;;;;0.60;0.60;;;10.60;89.50;;;;;;5164565;27;20425;-86
2021/03/13 11:12:24;;;;;;;2.43;0.63;;;10.60;89.60;;;;;;5164567;27;20470;-86
2021/03/13 11:14:50;;;;;;;0.73;0.73;;;10.60;89.30;;;;;;5164538;27;20488;-86
2021/03/13 11:17:17;;;;;;;0.97;0.60;;;10.70;89.10;;;;;;5164289;27;20963;-84
2021/03/13 11:19:43;;;;;;;0.80;0.43;;;10.70;89.40;;;;;;5165046;27;20458;-84
2021/03/13 11:22:10;;;;;;;0.30;0.30;;;10.70;89.10;;;;;;5165248;27;20476;-84
2021/03/13 11:24:37;;;;;;;2.70;0.40;;;10.80;89.00;;;;;;5165672;27;20453;-85
2021/03/13 11:27:04;;;;;;;0.50;0.40;;;10.80;89.00;;;;;;5165197;27;20446;-85
2021/03/13 11:29:42;;;;;;;0.63;0.63;;;10.90;88.50;;;;;;5165268;27;20474;-85
2021/03/13 11:32:09;;;;;;;0.60;0.43;;;;;;;;;;5162977;27;20462;-82
2021/03/13 11:34:36;;;;;;;1.70;1.07;;;10.90;87.00;;;;;;5161393;27;20567;-83
2021/03/13 11:37:02;;;;;;;0.60;0.60;;;11.00;88.70;;;;;;5161882;27;20449;-83
2021/03/13 11:39:29;;;;;;;0.80;0.50;;;11.00;88.00;;;;;;5161864;27;20461;-84
2021/03/13 11:41:55;;;;;;;2.40;0.67;;;10.80;88.00;;;;;;5162192;27;20466;-83
2021/03/13 11:44:22;;;;;;;3.60;0.80;;;10.90;88.20;;;;;;5162549;27;20456;-84
2021/03/13 11:46:48;;;;;;;2.93;1.20;;;10.90;88.30;;;;;;5164102;27;20857;-84
2021/03/13 11:49:14;;;;;;;0.80;0.50;;;11.00;88.00;;;;;;5142948;27;20447;-83
2021/03/13 11:51:42;;;;;;;1.27;0.50;;;11.00;87.80;;;;;;5141834;27;20544;-84
2021/03/13 11:54:09;;;;;;;0.40;0.30;;;11.20;87.30;;;;;;5142844;27;20458;-85
2021/03/13 11:56:36;;;;;;;0.50;0.40;;;11.10;86.70;;;;;;5142920;27;20480;-85
2021/03/13 11:59:02;;;;;;;0.57;0.37;;;11.10;86.40;;;;;;5159264;27;20518;-84
2021/03/13 12:01:28;;;;;;;1.40;0.60;;;11.00;87.30;;;;;;5164301;27;20470;-85
2021/03/13 12:03:54;;;;;;;0.50;0.50;;;11.10;87.10;;;;;;5164016;27;20446;-85
2021/03/13 12:06:21;;;;;;;0.93;0.57;;;11.10;87.20;;;;;;5163700;27;20546;-84
2021/03/13 12:08:47;;;;;;;0.50;0.33;;;11.10;87.80;;;;;;5164014;27;20462;-84
2021/03/13 12:11:13;;;;;;;2.00;1.57;;;11.20;88.00;;;;;;5163777;27;20468;-85
2021/03/13 12:13:41;;;;;;;0.83;0.63;;;11.20;88.00;;;;;;5163910;27;20456;-83
2021/03/13 12:16:14;;;;;;;1.17;0.70;;;11.20;90.10;;;;;;5163304;27;20470;-86
2021/03/13 12:18:40;;;;;;;1.07;0.83;;;11.10;90.60;;;;;;5142469;27;20452;-83
2021/03/13 12:21:06;;;;;;;1.93;0.47;;;10.90;91.70;;;;;;5142540;27;20478;-85
2021/03/13 12:23:43;;;;;;;0.40;0.30;;;10.60;91.20;;;;;;5141746;27;20450;-85
2021/03/13 12:36:23;;;;;;;;;;;;;;;;;;;;;
2021/03/13 12:39:14;;;;;;;0.50;0.40;;;10.40;93.30;;;;;;5020684;28;20539;-86
2021/03/13 12:45:19;;;;;;;3.63;0.67;;;10.70;93.30;;;;;;4941893;29;20463;-85
2021/03/13 12:57:24;;;;;;;0.43;0.43;;;10.80;93.60;;;;;;4903557;28;20880;-84
2021/03/13 12:59:50;;;;;;;0.85;0.60;;;10.50;94.10;;;;;;5054894;27;20456;-85
2021/03/13 13:02:16;;;;;;;2.58;0.85;;;10.30;94.70;;;;;;5141928;27;20717;-85
2021/03/13 13:04:43;;;;;;;4.20;0.50;;;10.20;95.40;;;;;;5142169;27;20624;-83
2021/03/13 13:07:09;;;;;;;0.45;0.45;;;9.90;96.30;;;;;;5141690;27;20449;-84
2021/03/13 13:10:05;;;;;;;0.55;0.55;;;9.60;96.90;;;;;;5143794;27;20204;-85
2021/03/13 13:12:39;;;;;;;0.85;0.75;;;9.60;97.70;;;;;;5143401;27;20274;-81
2021/03/13 13:15:09;;;;;;;0.60;0.60;;;9.10;99.20;;;;;;5143546;27;20214;-84
2021/03/13 13:17:44;;;;;;;1.60;1.00;;;8.80;99.90;;;;;;5143520;27;20198;-85
2021/03/13 13:20:13;;;;;;;0.40;0.40;;;7.80;99.90;;;;;;5139580;27;20548;-84
2021/03/13 13:22:42;;;;;;;1.08;0.60;;;6.90;99.90;;;;;;5140074;27;20310;-84
2021/03/13 13:25:10;;;;;;;1.10;0.50;;;6.20;99.90;;;;;;5139501;27;20214;-83
2021/03/13 13:27:37;;;;;;;0.93;0.40;;;5.90;99.90;;;;;;5138241;27;20209;-82
2021/03/13 13:30:06;;;;;;;0.65;0.50;;;5.60;99.90;;;;;;5137433;27;20207;-83
2021/03/13 13:32:34;;;;;;;0.30;0.30;;;5.40;99.90;;;;;;5138227;27;20231;-83